Time;durP1;ratioP1;P1;durP2;ratioP2;P2;SDS_P1;SDS_P2;PMS_P1;PMS_P2;Temp;Humidity;BMP_temperature;BMP_pressure;BME280_temperature;BME280_humidity;BME280_pressure;Samples;Min_cycle;Max_cycle;Signal;HPM_P1;HPM_P2
2022/02/11 00:01:00;;;;;;;;;4.25;2.75;;;;;20.68;35.02;102333.00;5037584;28;51262;-48
2022/02/11 00:08:46;;;;;;;;;4.50;4.25;;;;;20.63;35.40;102350.06;5036557;28;51051;-50
2022/02/11 00:11:15;;;;;;;;;3.00;3.00;;;;;20.62;35.31;102340.09;5037305;28;51056;-47
2022/02/11 00:13:41;;;;;;;;;4.50;4.50;;;;;20.63;35.74;102352.81;5036913;28;51991;-45
2022/02/11 00:16:06;;;;;;;;;3.00;3.00;;;;;20.62;35.74;102345.63;5035462;28;51053;-50
2022/02/11 00:18:31;;;;;;;;;5.75;5.00;;;;;20.61;35.39;102349.41;5036574;28;51214;-47
2022/02/11 00:20:57;;;;;;;;;3.75;3.00;;;;;20.60;35.44;102358.72;5037316;28;51113;-47
2022/02/11 00:23:22;;;;;;;;;3.75;3.50;;;;;20.57;35.26;102348.09;5036761;28;51806;-50
2022/02/11 00:26:00;;;;;;;;;3.75;3.00;;;;;20.57;35.55;102352.75;5029435;28;51386;-50
2022/02/11 00:33:45;;;;;;;;;3.50;3.50;;;;;20.53;35.42;102348.63;5036334;28;51084;-46
2022/02/11 00:36:13;;;;;;;;;3.00;3.00;;;;;20.50;35.65;102349.88;5036852;28;51576;-46
2022/02/11 01:03:17;;;;;;;;;4.75;3.50;;;;;20.37;35.79;102363.38;5036095;28;52320;-48
2022/02/11 01:05:43;;;;;;;;;4.50;3.00;;;;;20.36;35.47;102359.78;5036084;28;51605;-49
2022/02/11 01:08:08;;;;;;;;;4.75;3.00;;;;;20.37;35.79;102357.88;5036202;28;51105;-48
2022/02/11 01:10:34;;;;;;;;;3.50;2.50;;;;;20.35;35.53;102371.81;5036212;28;51156;-52
2022/02/11 01:12:59;;;;;;;;;4.50;3.25;;;;;20.35;35.65;102365.47;5036547;28;51125;-49
2022/02/11 01:15:27;;;;;;;;;3.50;3.50;;;;;20.33;35.71;102371.16;5036103;28;51771;-48
2022/02/11 01:17:57;;;;;;;;;3.25;2.25;;;;;20.33;35.70;102373.06;5036535;28;51322;-51
2022/02/11 01:20:43;;;;;;;;;6.25;3.00;;;;;20.32;35.48;102374.06;5030692;28;51504;-47
2022/02/11 01:34:45;;;;;;;;;2.75;2.75;;;;;20.27;35.51;102395.78;5036594;28;51028;-45
2022/02/11 01:36:50;;;;;;;;;2.75;2.75;;;;;20.26;35.47;102396.84;5019472;28;51454;-44
2022/02/11 01:47:56;;;;;;;;;3.00;3.00;;;;;20.21;35.27;102400.13;5035779;28;51132;-50
2022/02/11 01:53:05;;;;;;;;;3.00;3.00;;;;;20.19;35.50;102399.47;5035489;28;51186;-49
2022/02/11 02:04:21;;;;;;;;;4.00;3.00;;;;;20.14;35.37;102404.66;5035990;28;51339;-45
2022/02/11 02:25:35;;;;;;;;;2.00;2.00;;;;;20.07;35.44;102434.78;5029258;28;51118;-50
2022/02/11 02:57:17;;;;;;;;;1.50;1.50;;;;;19.99;35.78;102447.72;5040054;28;51367;-51
2022/02/11 04:08:07;;;;;;;;;1.75;1.75;;;;;19.81;35.73;102501.13;5037690;28;51197;-44
2022/02/11 04:55:42;;;;;;;;;3.00;2.00;;;;;19.69;36.00;102573.13;5036560;28;51153;-46
2022/02/11 05:00:51;;;;;;;;;1.75;1.75;;;;;19.68;35.96;102579.69;5036267;28;51536;-46
2022/02/11 05:03:17;;;;;;;;;1.00;1.00;;;;;19.67;35.56;102581.56;5035922;28;51078;-48
2022/02/11 05:05:51;;;;;;;;;4.50;2.50;;;;;19.67;35.85;102587.06;5036085;28;51388;-48
2022/02/11 05:08:22;;;;;;;;;1.50;1.50;;;;;19.65;35.60;102589.13;5036688;28;52428;-50
2022/02/11 05:10:49;;;;;;;;;2.00;2.00;;;;;19.65;35.69;102599.28;5035580;28;51034;-49
2022/02/11 05:13:16;;;;;;;;;2.75;2.50;;;;;19.64;35.49;102592.94;5036044;28;51330;-51
2022/02/11 05:15:42;;;;;;;;;3.75;1.75;;;;;19.64;35.77;102594.81;5035925;28;51170;-45
2022/02/11 05:18:08;;;;;;;;;3.00;2.00;;;;;19.62;35.83;102597.75;5036518;28;51236;-50
2022/02/11 05:20:34;;;;;;;;;4.75;2.00;;;;;19.62;35.68;102599.63;5035819;28;51848;-48
2022/02/11 05:23:06;;;;;;;;;1.50;1.50;;;;;19.62;35.90;102596.88;5035658;28;51103;-51
2022/02/11 05:25:37;;;;;;;;;2.00;2.00;;;;;19.60;35.40;102603.44;5036415;28;51241;-49
2022/02/11 05:28:04;;;;;;;;;2.00;2.00;;;;;19.61;35.95;102607.03;5035872;28;51224;-46
2022/02/11 05:30:30;;;;;;;;;1.75;1.75;;;;;19.60;35.86;102613.56;5036298;28;52753;-45
2022/02/11 05:32:56;;;;;;;;;1.50;1.50;;;;;19.62;35.67;102621.63;5036318;28;51087;-45
2022/02/11 05:35:21;;;;;;;;;2.00;2.00;;;;;19.59;35.86;102617.31;5036065;28;51321;-46
2022/02/11 05:37:48;;;;;;;;;2.00;1.00;;;;;19.59;35.73;102618.19;5036441;28;51188;-46
2022/02/11 05:40:13;;;;;;;;;2.50;2.50;;;;;19.58;35.65;102621.09;5036017;28;51373;-48
2022/02/11 05:42:39;;;;;;;;;1.50;1.50;;;;;19.58;35.65;102632.94;5036015;28;51085;-46
2022/02/11 05:45:05;;;;;;;;;2.00;2.00;;;;;19.57;35.73;102628.50;5036134;28;51110;-47
2022/02/11 05:47:30;;;;;;;;;1.25;1.25;;;;;19.57;35.65;102635.88;5036125;28;51194;-46
2022/02/11 05:49:55;;;;;;;;;4.00;2.00;;;;;19.56;35.79;102637.78;5035814;28;51098;-50
2022/02/11 05:52:21;;;;;;;;;2.25;2.25;;;;;19.55;35.84;102641.56;5035772;28;51159;-49
2022/02/11 05:54:46;;;;;;;;;1.00;1.00;;;;;19.55;35.60;102643.41;5034082;28;51090;-51
2022/02/11 05:57:12;;;;;;;;;1.75;1.75;;;;;19.55;35.79;102646.16;5035818;28;52392;-51
2022/02/11 05:59:37;;;;;;;;;3.00;2.00;;;;;19.54;35.79;102652.69;5034570;28;52717;-47
2022/02/11 06:02:03;;;;;;;;;3.00;1.50;;;;;19.53;35.92;102661.97;5034794;28;51211;-50
2022/02/11 06:04:28;;;;;;;;;2.00;2.00;;;;;19.53;35.67;102665.59;5035823;28;51014;-51
2022/02/11 06:06:56;;;;;;;;;1.25;1.25;;;;;19.52;35.52;102669.38;5035851;28;51071;-50
2022/02/11 06:09:22;;;;;;;;;1.50;1.50;;;;;19.51;35.65;102662.16;5035376;28;52640;-45
2022/02/11 06:11:47;;;;;;;;;2.50;2.00;;;;;19.52;35.98;102679.50;5035311;28;51160;-46
2022/02/11 06:14:13;;;;;;;;;3.00;3.00;;;;;19.51;35.25;102675.91;5035238;28;51098;-44
2022/02/11 06:16:39;;;;;;;;;3.75;3.75;;;;;19.51;35.01;102675.91;5034322;28;51062;-50
2022/02/11 06:19:04;;;;;;;;;4.00;4.00;;;;;19.49;34.18;102671.59;5035165;28;51035;-47
2022/02/11 06:21:30;;;;;;;;;5.50;5.00;;;;;19.47;34.06;102674.50;5034889;28;51124;-48
2022/02/11 06:23:55;;;;;;;;;7.50;5.25;;;;;19.44;33.72;102680.34;5035286;28;51237;-48
2022/02/11 06:26:25;;;;;;;;;6.00;6.00;;;;;19.40;33.58;102684.47;5035342;28;51211;-47
2022/02/11 06:28:51;;;;;;;;;9.00;5.75;;;;;19.36;33.60;102688.59;5035210;28;51112;-48
2022/02/11 06:31:17;;;;;;;;;6.25;5.75;;;;;19.32;33.58;102692.72;5034160;28;51028;-48
2022/02/11 06:33:42;;;;;;;;;6.25;5.50;;;;;19.27;33.35;102701.44;5029067;28;51252;-47
2022/02/11 06:36:08;;;;;;;;;6.50;6.00;;;;;19.24;33.23;102714.69;5029874;28;51045;-52
2022/02/11 06:38:33;;;;;;;;;6.75;5.00;;;;;19.19;33.05;102695.13;5032475;28;51838;-49
2022/02/11 06:40:59;;;;;;;;;8.50;6.00;;;;;19.16;32.92;102695.44;5028081;28;51064;-46
2022/02/11 06:43:24;;;;;;;;;4.50;3.25;;;;;19.18;33.16;102702.50;5031006;28;51339;-50
2022/02/11 06:45:50;;;;;;;;;8.75;5.00;;;;;19.23;32.82;102708.31;5029891;28;51207;-45
2022/02/11 06:48:16;;;;;;;;;6.75;4.75;;;;;19.30;33.22;102717.63;5032731;28;52045;-47
2022/02/11 06:50:43;;;;;;;;;7.75;4.25;;;;;19.39;33.77;102714.88;5030096;28;51202;-44
2022/02/11 06:53:10;;;;;;;;;5.50;3.25;;;;;19.47;33.62;102712.97;5025526;28;51050;-46
2022/02/11 06:55:35;;;;;;;;;5.50;5.25;;;;;19.54;33.81;102722.28;5034199;28;51186;-46
2022/02/11 06:58:01;;;;;;;;;4.00;4.00;;;;;19.62;33.70;102720.59;5034437;28;51985;-45
2022/02/11 07:00:26;;;;;;;;;6.50;4.00;;;;;19.71;33.83;102727.81;5015010;28;51144;-47
2022/02/11 07:02:52;;;;;;;;;4.75;3.00;;;;;19.79;34.01;102722.28;5033132;28;51093;-47
2022/02/11 07:05:19;;;;;;;;;5.00;5.00;;;;;19.87;33.76;102733.31;5034015;28;51172;-47
2022/02/11 07:07:44;;;;;;;;;4.00;4.00;;;;;19.97;33.84;102741.38;5032852;28;51917;-46
2022/02/11 07:10:11;;;;;;;;;5.00;4.00;;;;;20.06;34.02;102746.69;5033408;28;51124;-49
2022/02/11 07:12:36;;;;;;;;;3.75;3.75;;;;;20.15;33.94;102750.31;5033541;28;51229;-50
2022/02/11 07:15:02;;;;;;;;;4.25;4.25;;;;;20.24;33.95;102762.16;5034516;28;51071;-46
2022/02/11 07:17:27;;;;;;;;;6.00;3.75;;;;;20.31;34.09;102772.28;5033944;28;52377;-47
2022/02/11 07:19:52;;;;;;;;;4.50;2.25;;;;;20.40;33.85;102781.38;5033792;28;52566;-51
2022/02/11 07:22:18;;;;;;;;;5.25;4.25;;;;;20.48;33.94;102789.66;5033702;28;50990;-46
2022/02/11 07:24:43;;;;;;;;;6.00;4.25;;;;;20.55;33.69;102793.44;5033583;28;51152;-47
2022/02/11 07:27:10;;;;;;;;;5.00;5.00;;;;;20.63;33.80;102787.88;5034618;28;51704;-50
2022/02/11 07:29:35;;;;;;;;;5.00;5.00;;;;;20.69;34.13;102795.44;5032426;28;51014;-49
2022/02/11 07:32:02;;;;;;;;;3.50;3.50;;;;;20.76;34.24;102792.84;5033475;28;51163;-47
2022/02/11 07:34:28;;;;;;;;;4.50;4.50;;;;;20.83;34.21;102815.03;5034380;28;51158;-44
2022/02/11 07:36:53;;;;;;;;;4.75;3.50;;;;;20.89;34.24;102825.34;5035476;28;51736;-49
2022/02/11 07:39:19;;;;;;;;;5.25;4.00;;;;;20.95;34.84;102824.66;5034773;28;51132;-45
2022/02/11 07:41:44;;;;;;;;;4.75;4.00;;;;;21.02;34.98;102831.13;5035993;28;52793;-44
2022/02/11 07:44:09;;;;;;;;;3.00;2.75;;;;;21.07;34.52;102828.72;5034385;28;51231;-45
2022/02/11 07:46:35;;;;;;;;;4.75;3.00;;;;;21.14;34.34;102835.22;5033516;28;52365;-46
2022/02/11 07:49:01;;;;;;;;;3.25;3.25;;;;;21.21;34.35;102838.13;5034205;28;51213;-45
2022/02/11 07:51:26;;;;;;;;;4.00;3.75;;;;;21.24;34.27;102835.00;5032448;28;51335;-48
2022/02/11 07:53:52;;;;;;;;;4.00;3.50;;;;;21.29;34.32;102843.63;5033657;28;51210;-44
2022/02/11 07:56:17;;;;;;;;;4.00;4.00;;;;;21.30;34.55;102851.72;5033288;28;51708;-49
2022/02/11 07:58:43;;;;;;;;;6.25;3.50;;;;;21.29;34.07;102854.66;5034433;28;51267;-47
2022/02/11 08:01:09;;;;;;;;;7.50;6.00;;;;;21.26;33.95;102855.03;5034262;28;51361;-51
2022/02/11 08:03:34;;;;;;;;;5.00;4.25;;;;;21.20;33.86;102851.06;5032611;28;51147;-49
2022/02/11 08:06:00;;;;;;;;;6.50;5.75;;;;;21.14;33.85;102850.91;5034046;28;51532;-47
2022/02/11 08:08:31;;;;;;;;;6.75;3.75;;;;;21.09;34.25;102854.19;5031836;28;51463;-51
2022/02/11 08:10:59;;;;;;;;;4.75;3.00;;;;;21.04;34.10;102857.47;5034114;28;51275;-48
2022/02/11 08:13:25;;;;;;;;;5.50;4.25;;;;;20.99;34.01;102870.06;5032239;28;51462;-51
2022/02/11 08:15:51;;;;;;;;;5.00;5.00;;;;;20.94;33.95;102869.72;5033909;28;51873;-49
2022/02/11 08:18:17;;;;;;;;;6.25;6.25;;;;;20.90;33.81;102874.75;5032602;28;51174;-52
2022/02/11 08:20:42;;;;;;;;;4.25;4.00;;;;;20.84;34.17;102875.47;5035457;28;51157;-48
2022/02/11 08:23:07;;;;;;;;;5.00;4.00;;;;;20.79;33.78;102880.63;5035026;28;51175;-51
2022/02/11 08:25:34;;;;;;;;;7.50;6.00;;;;;20.74;33.67;102886.69;5035560;28;51100;-48
2022/02/11 08:28:02;;;;;;;;;4.75;4.00;;;;;20.71;34.13;102887.00;5034807;28;51487;-49
2022/02/11 08:30:28;;;;;;;;;3.50;3.50;;;;;20.66;33.96;102891.34;5027942;28;51242;-51
2022/02/11 08:32:53;;;;;;;;;4.25;4.00;;;;;20.63;34.12;102897.16;5035929;28;51050;-50
2022/02/11 08:35:19;;;;;;;;;6.00;6.00;;;;;20.59;34.07;102904.94;5027672;28;51880;-45
2022/02/11 08:37:44;;;;;;;;;5.50;5.00;;;;;20.55;34.41;102899.97;5034308;28;51067;-48
2022/02/11 08:40:10;;;;;;;;;6.00;4.00;;;;;20.51;33.93;102904.94;5034344;28;51475;-52
2022/02/11 08:42:35;;;;;;;;;9.25;4.25;;;;;20.48;34.43;102910.78;5035708;28;51169;-51
2022/02/11 08:45:02;;;;;;;;;4.75;3.25;;;;;20.44;34.22;102910.28;5035340;28;51059;-48
2022/02/11 08:47:28;;;;;;;;;6.00;6.00;;;;;20.42;34.31;102920.59;5034499;28;51396;-51
2022/02/11 08:49:53;;;;;;;;;4.75;4.75;;;;;20.39;34.31;102914.53;5035119;28;51132;-48
2022/02/11 08:52:18;;;;;;;;;4.75;4.00;;;;;20.37;34.13;102927.63;5035463;28;51136;-48
2022/02/11 08:54:44;;;;;;;;;5.00;3.50;;;;;20.35;33.94;102921.44;5035681;28;51892;-51
2022/02/11 08:57:09;;;;;;;;;3.50;3.00;;;;;20.31;34.46;102926.41;5034861;28;51537;-48
2022/02/11 08:59:34;;;;;;;;;4.00;4.00;;;;;20.29;34.12;102931.22;5025308;28;51066;-45
2022/02/11 09:02:00;;;;;;;;;3.00;2.50;;;;;20.27;34.34;102932.44;5035445;28;51239;-47
2022/02/11 09:04:25;;;;;;;;;3.50;3.50;;;;;20.25;34.23;102931.75;5034062;28;51079;-49
2022/02/11 09:06:50;;;;;;;;;4.75;4.75;;;;;20.23;34.35;102939.31;5032648;28;51090;-49
2022/02/11 09:09:16;;;;;;;;;4.25;3.75;;;;;20.21;34.40;102935.84;5032603;28;51098;-50
2022/02/11 09:11:42;;;;;;;;;2.00;2.00;;;;;20.17;34.19;102938.09;5035254;28;51261;-52
2022/02/11 09:14:08;;;;;;;;;4.00;4.00;;;;;20.17;34.18;102943.59;5034267;28;52241;-51
2022/02/11 09:16:35;;;;;;;;;4.00;4.00;;;;;20.15;34.05;102948.41;5034456;28;50973;-52
2022/02/11 09:19:01;;;;;;;;;5.00;3.00;;;;;20.13;34.20;102956.00;5035407;28;51097;-51
2022/02/11 09:21:27;;;;;;;;;4.25;3.50;;;;;20.10;34.22;102957.16;5034868;28;51250;-50
2022/02/11 09:23:53;;;;;;;;;4.75;1.50;;;;;20.10;34.39;102968.16;5019059;28;53018;-51
2022/02/11 09:26:19;;;;;;;;;3.00;3.00;;;;;20.08;34.56;102972.13;5034870;28;51176;-49
2022/02/11 09:28:45;;;;;;;;;4.50;4.50;;;;;20.07;34.17;102985.03;5035343;28;51087;-53
2022/02/11 09:31:11;;;;;;;;;4.50;3.00;;;;;20.05;34.15;102987.09;5034977;28;51044;-51
2022/02/11 09:33:37;;;;;;;;;4.50;4.00;;;;;20.04;34.49;102985.38;5033796;28;52722;-48
2022/02/11 09:36:02;;;;;;;;;3.25;3.25;;;;;20.03;34.12;102989.16;5034232;28;51201;-46
2022/02/11 09:38:28;;;;;;;;;4.00;4.00;;;;;20.02;34.20;102979.19;5035065;28;51204;-52
2022/02/11 09:40:53;;;;;;;;;3.25;3.25;;;;;20.03;34.47;102988.28;5033602;28;51160;-51
2022/02/11 09:43:22;;;;;;;;;4.50;4.50;;;;;20.04;34.53;102984.50;5034435;28;51118;-47
2022/02/11 09:45:49;;;;;;;;;3.75;2.00;;;;;20.04;34.28;102998.25;5034404;28;51208;-46
2022/02/11 09:48:15;;;;;;;;;4.00;3.00;;;;;20.06;34.48;102998.94;5033944;28;51176;-48
2022/02/11 09:50:40;;;;;;;;;4.25;3.00;;;;;20.06;34.42;103005.31;5033736;28;51302;-47
2022/02/11 09:53:06;;;;;;;;;4.25;2.50;;;;;20.09;34.15;103004.97;5033990;28;51879;-45
2022/02/11 09:55:35;;;;;;;;;5.00;4.75;;;;;20.10;34.16;103003.94;5030675;28;51167;-47
2022/02/11 09:58:16;;;;;;;;;4.00;3.25;;;;;20.12;34.38;102999.16;5034744;28;50990;-47
2022/02/11 10:00:48;;;;;;;;;4.00;3.50;;;;;20.12;34.47;102999.16;5034858;28;51158;-48
2022/02/11 10:03:30;;;;;;;;;3.75;3.75;;;;;20.13;34.29;103000.88;5033911;28;52716;-47
2022/02/11 10:06:00;;;;;;;;;4.25;3.00;;;;;20.16;34.35;103006.03;5009997;28;52586;-45
2022/02/11 10:08:29;;;;;;;;;5.50;4.00;;;;;20.19;34.05;103002.06;5029950;28;51268;-47
2022/02/11 10:10:56;;;;;;;;;5.50;3.00;;;;;20.22;34.06;103006.38;5034469;28;51108;-46
2022/02/11 10:13:28;;;;;;;;;4.75;3.00;;;;;20.25;34.24;103006.06;5033638;28;51980;-48
2022/02/11 10:15:59;;;;;;;;;4.00;3.00;;;;;20.27;33.82;103010.34;5034186;28;51202;-46
2022/02/11 10:18:30;;;;;;;;;6.00;4.00;;;;;20.30;33.83;103014.66;5034527;28;51138;-47
2022/02/11 10:21:01;;;;;;;;;4.25;3.00;;;;;20.31;34.52;103008.09;5034296;28;50987;-45
2022/02/11 10:23:32;;;;;;;;;4.00;3.50;;;;;20.33;34.18;103011.59;5033387;28;51192;-47
2022/02/11 10:26:10;;;;;;;;;3.00;2.00;;;;;20.36;34.09;103020.34;5032605;28;51228;-48
2022/02/11 10:28:45;;;;;;;;;6.75;2.25;;;;;20.39;33.67;103019.16;5033409;28;51105;-45
2022/02/11 10:31:19;;;;;;;;;4.50;4.00;;;;;20.40;33.93;103021.72;5033526;28;51120;-48
2022/02/11 10:34:03;;;;;;;;;4.00;3.00;;;;;20.40;34.04;103024.47;5030006;28;52208;-47
2022/02/11 10:36:49;;;;;;;;;2.75;2.50;;;;;20.40;33.99;103032.72;5032894;28;51530;-45
2022/02/11 10:39:26;;;;;;;;;5.00;3.25;;;;;20.41;33.79;103028.09;5032885;28;51205;-49
2022/02/11 10:41:55;;;;;;;;;5.50;3.25;;;;;20.41;33.82;103033.59;5033373;28;51294;-47
2022/02/11 10:44:33;;;;;;;;;4.00;3.50;;;;;20.40;34.01;103040.13;5032993;28;50939;-45
2022/02/11 10:47:03;;;;;;;;;4.25;3.50;;;;;20.39;34.04;103038.41;5033489;28;51409;-45
2022/02/11 10:49:48;;;;;;;;;3.00;2.00;;;;;20.38;34.05;103043.06;5034066;28;51181;-44
2022/02/11 10:52:15;;;;;;;;;4.75;4.00;;;;;20.37;33.69;103051.50;5032941;28;51442;-46
2022/02/11 10:54:45;;;;;;;;;3.00;2.00;;;;;20.36;33.78;103045.13;5032363;28;52024;-48
2022/02/11 10:57:16;;;;;;;;;3.50;2.50;;;;;20.38;34.05;103048.56;5032859;28;51263;-49
2022/02/11 10:59:46;;;;;;;;;2.00;2.00;;;;;20.39;34.01;103047.53;5029397;28;51127;-48
2022/02/11 11:02:15;;;;;;;;;1.75;1.75;;;;;20.41;34.13;103052.88;5034617;28;51094;-48
2022/02/11 11:04:41;;;;;;;;;4.00;3.00;;;;;20.45;33.76;103048.78;5036901;28;52008;-46
2022/02/11 11:07:07;;;;;;;;;4.75;4.50;;;;;20.53;33.53;103050.69;5036840;28;51042;-48
2022/02/11 11:09:35;;;;;;;;;5.25;4.50;;;;;20.61;34.08;103045.19;5036867;28;51192;-50
2022/02/11 11:12:03;;;;;;;;;1.75;1.75;;;;;20.68;34.01;103047.09;5036592;28;51292;-47
2022/02/11 11:14:29;;;;;;;;;4.50;3.50;;;;;20.77;33.80;103039.72;5036869;28;52193;-49
2022/02/11 11:17:00;;;;;;;;;3.00;3.00;;;;;20.87;34.16;103047.81;5036607;28;51413;-49
2022/02/11 11:19:30;;;;;;;;;5.75;3.25;;;;;20.95;33.74;103045.06;5037045;28;51199;-47
2022/02/11 11:22:11;;;;;;;;;3.75;3.75;;;;;21.03;33.50;103042.28;5036931;28;51229;-49
2022/02/11 11:24:52;;;;;;;;;4.25;4.00;;;;;21.12;33.54;103035.72;5031238;28;51824;-49
2022/02/11 11:27:42;;;;;;;;;2.00;2.00;;;;;21.21;33.77;103036.56;5036317;28;51219;-47
2022/02/11 11:30:30;;;;;;;;;3.25;2.50;;;;;21.26;33.33;103040.56;5036531;28;51163;-51
2022/02/11 11:33:07;;;;;;;;;2.75;2.75;;;;;21.28;33.28;103035.75;5036895;28;51150;-49
2022/02/11 11:35:33;;;;;;;;;3.00;3.00;;;;;21.28;33.18;103041.25;5029830;28;51377;-50
2022/02/11 11:38:16;;;;;;;;;4.00;4.00;;;;;21.29;33.10;103042.13;5035347;28;51054;-50
2022/02/11 11:40:56;;;;;;;;;5.00;4.00;;;;;21.27;33.67;103053.31;5036939;28;51089;-48
2022/02/11 11:43:33;;;;;;;;;4.50;4.25;;;;;21.25;33.59;103041.56;5037390;28;51211;-48
2022/02/11 11:46:16;;;;;;;;;2.00;2.00;;;;;21.23;32.99;103037.25;5036605;28;50942;-45
2022/02/11 11:49:00;;;;;;;;;4.25;3.00;;;;;21.20;33.25;103037.63;5036964;28;51422;-50
2022/02/11 11:51:46;;;;;;;;;4.50;3.00;;;;;21.16;33.34;103048.13;5036798;28;51206;-49
2022/02/11 11:54:23;;;;;;;;;3.00;2.00;;;;;21.14;33.50;103046.56;5022654;28;51020;-50
2022/02/11 11:56:50;;;;;;;;;4.00;3.50;;;;;21.10;33.61;103047.97;5036656;28;51037;-48
2022/02/11 11:59:29;;;;;;;;;3.00;3.00;;;;;21.06;33.30;103041.09;5036864;28;51140;-50
2022/02/11 12:02:10;;;;;;;;;4.00;3.75;;;;;21.02;33.32;103032.28;5036710;28;51012;-48
2022/02/11 12:04:41;;;;;;;;;4.75;4.00;;;;;21.02;33.22;103035.03;5036832;28;50959;-48
2022/02/11 12:07:15;;;;;;;;;5.50;3.50;;;;;21.00;33.50;103032.47;5031960;28;52536;-45
2022/02/11 12:09:44;;;;;;;;;4.75;3.00;;;;;20.98;33.03;103025.41;5016523;28;51197;-44
2022/02/11 12:12:11;;;;;;;;;4.00;3.75;;;;;20.95;33.26;103023.00;5015821;28;51377;-44
2022/02/11 12:14:38;;;;;;;;;4.00;4.00;;;;;20.93;33.33;103036.06;5015516;28;51104;-48
2022/02/11 12:17:08;;;;;;;;;4.50;4.50;;;;;20.90;33.25;103028.16;5015893;28;51992;-46
2022/02/11 12:19:34;;;;;;;;;2.25;2.25;;;;;20.87;33.10;103036.78;5023224;28;51097;-46
2022/02/11 12:22:06;;;;;;;;;4.25;4.25;;;;;20.84;33.64;103028.84;5035896;28;51066;-46
2022/02/11 12:27:30;;;;;;;;;5.50;3.00;;;;;20.79;33.86;103021.09;5035827;28;51595;-46
2022/02/11 12:30:03;;;;;;;;;4.25;4.25;;;;;20.78;33.43;103024.91;5035887;28;50962;-48
2022/02/11 12:32:40;;;;;;;;;2.00;2.00;;;;;20.75;33.86;103023.34;5035987;28;51116;-48
2022/02/11 12:35:07;;;;;;;;;6.50;4.00;;;;;20.73;33.63;103025.41;5036116;28;51158;-45
2022/02/11 12:37:33;;;;;;;;;3.00;3.00;;;;;20.72;33.46;103017.31;5035520;28;52185;-47
2022/02/11 12:40:11;;;;;;;;;3.00;2.25;;;;;20.69;33.58;103015.75;5035793;28;51077;-45
2022/02/11 12:42:41;;;;;;;;;2.00;2.00;;;;;20.68;33.81;103024.19;5035546;28;51245;-46
2022/02/11 12:45:09;;;;;;;;;5.50;4.00;;;;;20.67;33.56;103008.72;5036131;28;51430;-50
2022/02/11 12:47:36;;;;;;;;;5.25;3.75;;;;;20.65;33.48;102999.78;5035910;28;53174;-46
2022/02/11 12:50:02;;;;;;;;;4.25;3.75;;;;;20.63;33.88;103004.56;5035746;28;51375;-47
2022/02/11 12:52:30;;;;;;;;;1.25;1.25;;;;;20.62;33.68;103000.09;5035672;28;51159;-46
2022/02/11 12:55:06;;;;;;;;;2.50;2.25;;;;;20.59;33.60;103004.06;5035980;28;51133;-48
2022/02/11 12:57:33;;;;;;;;;1.50;1.50;;;;;20.59;33.38;102994.94;5035681;28;50967;-46
2022/02/11 13:00:00;;;;;;;;;2.00;2.00;;;;;20.56;33.82;102998.91;5035384;28;51068;-45
2022/02/11 13:02:36;;;;;;;;;5.25;1.75;;;;;20.54;33.85;103000.97;5035700;28;51120;-46
2022/02/11 13:05:07;;;;;;;;;2.50;2.50;;;;;20.53;33.85;103007.50;5035707;28;51078;-45
2022/02/11 13:07:35;;;;;;;;;3.75;2.25;;;;;20.51;34.03;103004.03;5035155;28;51117;-45
2022/02/11 13:10:01;;;;;;;;;2.25;2.25;;;;;20.50;33.97;102996.81;5036421;28;51581;-46
2022/02/11 13:12:41;;;;;;;;;4.25;3.00;;;;;20.49;33.94;102995.09;5036275;28;51137;-47
2022/02/11 13:15:09;;;;;;;;;2.75;2.75;;;;;20.47;33.75;102997.16;5036180;28;51125;-50
2022/02/11 13:17:35;;;;;;;;;3.00;3.00;;;;;20.44;34.04;102998.38;5035928;28;51071;-53
2022/02/11 13:20:11;;;;;;;;;2.75;2.25;;;;;20.43;34.12;102999.41;5036198;28;51172;-47
2022/02/11 13:22:39;;;;;;;;;3.00;2.00;;;;;20.41;33.90;103000.56;5035382;28;51283;-46
2022/02/11 13:25:05;;;;;;;;;3.75;3.75;;;;;20.40;34.16;102999.69;5035699;28;50979;-53
2022/02/11 13:27:51;;;;;;;;;2.75;2.75;;;;;20.37;33.79;102994.53;5035788;28;51843;-51
2022/02/11 13:30:31;;;;;;;;;4.00;3.00;;;;;20.36;34.13;102994.72;5035955;28;51026;-50
2022/02/11 13:32:59;;;;;;;;;3.00;3.00;;;;;20.35;34.15;103001.25;5018330;28;51077;-50
2022/02/11 13:35:26;;;;;;;;;4.75;2.75;;;;;20.32;34.12;103002.47;5036427;28;50947;-51
2022/02/11 13:37:54;;;;;;;;;3.00;2.50;;;;;20.33;33.96;103006.06;5035491;28;51773;-49
2022/02/11 13:40:25;;;;;;;;;4.00;1.00;;;;;20.31;34.22;102997.09;5035634;28;51082;-52
2022/02/11 13:43:07;;;;;;;;;3.00;2.00;;;;;20.30;34.07;102995.38;5034238;28;51215;-47
2022/02/11 13:45:55;;;;;;;;;4.75;3.50;;;;;20.29;34.05;102996.41;5035449;28;51361;-50
2022/02/11 13:48:22;;;;;;;;;2.75;2.75;;;;;20.26;33.96;102989.38;5035467;28;51660;-49
2022/02/11 13:51:12;;;;;;;;;2.25;2.25;;;;;20.25;34.02;102992.28;5035180;28;51345;-48
2022/02/11 13:53:49;;;;;;;;;4.25;4.25;;;;;20.23;33.97;102986.09;5035208;28;51076;-50
2022/02/11 13:56:19;;;;;;;;;2.00;2.00;;;;;20.23;34.12;102988.84;5035370;28;51311;-46
2022/02/11 13:59:10;;;;;;;;;4.25;3.00;;;;;20.20;34.26;102990.03;5035257;28;51091;-50
2022/02/11 14:01:43;;;;;;;;;4.00;3.00;;;;;20.18;34.15;102984.69;5035413;28;50959;-47
2022/02/11 14:04:10;;;;;;;;;3.00;3.00;;;;;20.17;34.37;102991.22;5035137;28;51062;-49
2022/02/11 14:06:55;;;;;;;;;3.75;2.00;;;;;20.15;34.05;102989.69;5035199;28;51047;-50
2022/02/11 14:09:27;;;;;;;;;3.75;2.75;;;;;20.12;33.93;102981.78;5016744;28;52119;-46
2022/02/11 14:11:54;;;;;;;;;2.75;2.00;;;;;20.13;34.00;102978.84;5034792;28;51156;-45
2022/02/11 14:14:21;;;;;;;;;2.00;2.00;;;;;20.11;34.21;102980.91;5017145;28;51025;-49
2022/02/11 14:16:47;;;;;;;;;3.00;2.00;;;;;20.10;33.99;102976.41;5035393;28;51277;-48
2022/02/11 14:19:24;;;;;;;;;3.00;3.00;;;;;20.10;34.09;102968.16;5034678;28;51128;-50
2022/02/11 14:21:55;;;;;;;;;3.00;2.75;;;;;20.08;34.26;102972.97;5034616;28;51050;-48
2022/02/11 14:24:22;;;;;;;;;4.00;2.75;;;;;20.07;33.96;102967.66;5035370;28;51008;-48
2022/02/11 14:26:48;;;;;;;;;5.00;3.50;;;;;20.08;34.11;102975.72;5035124;28;50941;-49
2022/02/11 14:29:15;;;;;;;;;3.50;2.00;;;;;20.06;33.87;102975.06;5034936;28;51166;-47
2022/02/11 14:31:42;;;;;;;;;3.00;3.00;;;;;20.05;34.15;102976.09;5034957;28;51610;-50
2022/02/11 14:34:08;;;;;;;;;3.00;2.75;;;;;20.04;33.79;102979.88;5035088;28;50991;-50
2022/02/11 14:36:36;;;;;;;;;7.00;2.50;;;;;20.04;34.14;102974.38;5034692;28;50928;-47
2022/02/11 14:39:01;;;;;;;;;2.75;1.75;;;;;20.02;34.03;102970.94;5034355;28;51980;-46
2022/02/11 14:41:46;;;;;;;;;2.00;2.00;;;;;20.02;34.05;102981.94;5033456;28;50985;-48
2022/02/11 14:44:32;;;;;;;;;1.50;1.50;;;;;20.01;33.93;102971.97;5034628;28;51195;-50
2022/02/11 14:47:04;;;;;;;;;4.75;4.00;;;;;20.00;34.08;102975.72;5033703;28;50997;-49
2022/02/11 14:49:30;;;;;;;;;3.00;2.75;;;;;20.00;33.96;102972.09;5034432;28;51923;-48
2022/02/11 14:52:01;;;;;;;;;4.00;3.50;;;;;20.00;34.13;102977.59;5034498;28;51097;-49
2022/02/11 14:54:27;;;;;;;;;5.25;3.50;;;;;19.99;33.96;102975.88;5035094;28;51038;-49
2022/02/11 14:56:55;;;;;;;;;3.00;2.00;;;;;19.97;34.16;102967.81;5034697;28;51089;-49
2022/02/11 14:59:21;;;;;;;;;3.25;3.25;;;;;19.98;33.88;102974.16;5034656;28;52686;-52
2022/02/11 15:01:47;;;;;;;;;3.00;3.00;;;;;19.96;33.82;102971.59;5034543;28;50928;-48
2022/02/11 15:04:13;;;;;;;;;3.00;2.25;;;;;19.95;34.20;102978.13;5034667;28;50992;-49
2022/02/11 15:06:39;;;;;;;;;3.75;3.00;;;;;19.95;33.80;102978.13;5034850;28;51090;-46
2022/02/11 15:09:06;;;;;;;;;3.00;3.00;;;;;19.94;34.07;102973.66;5034242;28;52717;-50
2022/02/11 15:11:33;;;;;;;;;5.00;2.00;;;;;19.95;34.15;102971.75;5034202;28;51380;-49
2022/02/11 15:13:58;;;;;;;;;3.00;3.00;;;;;19.93;33.97;102968.31;5034783;28;51053;-48
2022/02/11 15:16:23;;;;;;;;;4.00;3.00;;;;;19.92;34.05;102967.47;5034698;28;51139;-51
2022/02/11 15:18:49;;;;;;;;;3.50;2.00;;;;;19.92;33.97;102970.22;5033836;28;51906;-47
2022/02/11 15:21:17;;;;;;;;;2.25;2.25;;;;;19.91;33.95;102973.13;5034121;28;51117;-50
2022/02/11 15:23:42;;;;;;;;;2.50;2.50;;;;;19.89;33.92;102965.03;5034648;28;51014;-49
2022/02/11 15:26:10;;;;;;;;;3.50;2.00;;;;;19.89;33.96;102970.53;5034488;28;50992;-49